sensor_id;sensor_type;location;lat;lon;timestamp;pressure;altitude;pressure_sealevel;temperature;humidity
66381;BME280;53177;52.648;1.214;2023-01-15T00:01:40;99156.06;;;4.15;76.91
66381;BME280;53177;52.648;1.214;2023-01-15T00:04:06;99151.78;;;4.11;77.40
66381;BME280;53177;52.648;1.214;2023-01-15T00:06:38;99146.53;;;4.12;77.34
66381;BME280;53177;52.648;1.214;2023-01-15T00:09:05;99141.44;;;4.06;77.45
66381;BME280;53177;52.648;1.214;2023-01-15T00:11:31;99145.81;;;4.06;77.72
66381;BME280;53177;52.648;1.214;2023-01-15T00:13:56;99131.09;;;4.00;78.46
66381;BME280;53177;52.648;1.214;2023-01-15T00:16:23;99132.03;;;3.98;77.58
66381;BME280;53177;52.648;1.214;2023-01-15T00:18:56;99134.56;;;4.01;77.95
66381;BME280;53177;52.648;1.214;2023-01-15T00:21:23;99128.56;;;3.97;77.80
66381;BME280;53177;52.648;1.214;2023-01-15T00:23:49;99139.94;;;3.95;78.09
66381;BME280;53177;52.648;1.214;2023-01-15T00:26:34;99125.31;;;3.86;77.81
66381;BME280;53177;52.648;1.214;2023-01-15T00:29:19;99122.69;;;3.87;77.83
66381;BME280;53177;52.648;1.214;2023-01-15T00:31:55;99127.06;;;3.85;78.06
66381;BME280;53177;52.648;1.214;2023-01-15T00:34:21;99125.31;;;3.84;78.00
66381;BME280;53177;52.648;1.214;2023-01-15T00:36:46;99127.03;;;3.87;78.18
66381;BME280;53177;52.648;1.214;2023-01-15T00:39:11;99125.31;;;3.84;77.95
66381;BME280;53177;52.648;1.214;2023-01-15T00:41:37;99128.00;;;3.83;78.18
66381;BME280;53177;52.648;1.214;2023-01-15T00:44:02;99115.88;;;3.79;77.78
66381;BME280;53177;52.648;1.214;2023-01-15T00:46:28;99122.13;;;3.72;78.92
66381;BME280;53177;52.648;1.214;2023-01-15T00:48:53;99115.16;;;3.72;78.11
66381;BME280;53177;52.648;1.214;2023-01-15T00:51:19;99117.78;;;3.71;78.13
66381;BME280;53177;52.648;1.214;2023-01-15T00:53:44;99120.47;;;3.68;77.94
66381;BME280;53177;52.648;1.214;2023-01-15T00:56:10;99130.13;;;3.64;78.59
66381;BME280;53177;52.648;1.214;2023-01-15T00:58:35;99119.69;;;3.64;78.99
66381;BME280;53177;52.648;1.214;2023-01-15T01:01:00;99119.69;;;3.64;78.10
66381;BME280;53177;52.648;1.214;2023-01-15T01:03:26;99125.69;;;3.68;78.96
66381;BME280;53177;52.648;1.214;2023-01-15T01:05:52;99125.84;;;3.62;78.55
66381;BME280;53177;52.648;1.214;2023-01-15T01:08:17;99113.59;;;3.62;77.60
66381;BME280;53177;52.648;1.214;2023-01-15T01:10:43;99113.59;;;3.62;78.31
66381;BME280;53177;52.648;1.214;2023-01-15T01:13:09;99100.66;;;3.56;78.75
66381;BME280;53177;52.648;1.214;2023-01-15T01:15:38;99093.69;;;3.58;78.66
66381;BME280;53177;52.648;1.214;2023-01-15T01:18:04;99096.28;;;3.58;78.27
66381;BME280;53177;52.648;1.214;2023-01-15T01:20:31;99089.41;;;3.53;79.17
66381;BME280;53177;52.648;1.214;2023-01-15T01:22:57;99104.22;;;3.54;78.73
66381;BME280;53177;52.648;1.214;2023-01-15T01:25:22;99098.13;;;3.52;79.00
66381;BME280;53177;52.648;1.214;2023-01-15T01:27:48;99105.03;;;3.56;78.01
66381;BME280;53177;52.648;1.214;2023-01-15T01:30:15;99110.25;;;3.57;78.19
66381;BME280;53177;52.648;1.214;2023-01-15T01:32:44;99100.81;;;3.49;78.54
66381;BME280;53177;52.648;1.214;2023-01-15T01:35:10;99094.66;;;3.53;78.09
66381;BME280;53177;52.648;1.214;2023-01-15T01:37:36;99094.63;;;3.54;78.61
66381;BME280;53177;52.648;1.214;2023-01-15T01:40:02;99099.97;;;3.48;78.07
66381;BME280;53177;52.648;1.214;2023-01-15T01:42:28;99099.06;;;3.51;78.32
66381;BME280;53177;52.648;1.214;2023-01-15T01:44:58;99094.81;;;3.45;78.85
66381;BME280;53177;52.648;1.214;2023-01-15T01:47:25;99093.91;;;3.46;78.96
66381;BME280;53177;52.648;1.214;2023-01-15T01:50:01;99108.72;;;3.46;78.50
66381;BME280;53177;52.648;1.214;2023-01-15T01:52:50;99090.38;;;3.49;78.43
66381;BME280;53177;52.648;1.214;2023-01-15T01:55:20;99089.50;;;3.48;78.70
66381;BME280;53177;52.648;1.214;2023-01-15T01:57:46;99108.66;;;3.50;78.61
66381;BME280;53177;52.648;1.214;2023-01-15T02:00:13;99111.31;;;3.47;78.46
66381;BME280;53177;52.648;1.214;2023-01-15T02:02:45;99119.91;;;3.54;79.11
66381;BME280;53177;52.648;1.214;2023-01-15T02:05:20;99126.00;;;3.53;78.25
66381;BME280;53177;52.648;1.214;2023-01-15T02:07:47;99126.09;;;3.48;78.90
66381;BME280;53177;52.648;1.214;2023-01-15T02:10:15;99113.88;;;3.49;79.25
66381;BME280;53177;52.648;1.214;2023-01-15T02:15:38;99116.56;;;3.47;78.91
66381;BME280;53177;52.648;1.214;2023-01-15T02:18:11;99102.69;;;3.43;78.61
66381;BME280;53177;52.648;1.214;2023-01-15T02:20:48;99107.94;;;3.42;79.14
66381;BME280;53177;52.648;1.214;2023-01-15T02:26:07;99101.03;;;3.39;78.75
66381;BME280;53177;52.648;1.214;2023-01-15T02:28:39;99105.41;;;3.37;78.93
66381;BME280;53177;52.648;1.214;2023-01-15T02:31:27;99120.25;;;3.35;79.40
66381;BME280;53177;52.648;1.214;2023-01-15T02:34:28;99107.94;;;3.40;77.85
66381;BME280;53177;52.648;1.214;2023-01-15T02:37:01;99104.53;;;3.38;77.85
66381;BME280;53177;52.648;1.214;2023-01-15T02:39:28;99116.72;;;3.38;78.40
66381;BME280;53177;52.648;1.214;2023-01-15T02:41:59;99116.72;;;3.38;77.93
66381;BME280;53177;52.648;1.214;2023-01-15T02:44:28;99114.22;;;3.32;78.78
66381;BME280;53177;52.648;1.214;2023-01-15T02:46:56;99110.81;;;3.28;78.57
66381;BME280;53177;52.648;1.214;2023-01-15T02:49:22;99119.50;;;3.29;78.29
66381;BME280;53177;52.648;1.214;2023-01-15T02:52:03;99102.06;;;3.29;78.77
66381;BME280;53177;52.648;1.214;2023-01-15T02:54:40;99103.81;;;3.30;78.04
66381;BME280;53177;52.648;1.214;2023-01-15T02:57:07;99108.25;;;3.25;78.70
66381;BME280;53177;52.648;1.214;2023-01-15T02:59:38;99099.66;;;3.20;78.80
66381;BME280;53177;52.648;1.214;2023-01-15T03:02:21;99091.91;;;3.16;79.06
66381;BME280;53177;52.648;1.214;2023-01-15T03:05:04;99088.41;;;3.17;78.31
66381;BME280;53177;52.648;1.214;2023-01-15T03:07:39;99100.53;;;3.21;78.42
66381;BME280;53177;52.648;1.214;2023-01-15T03:10:08;99081.38;;;3.20;78.17
66381;BME280;53177;52.648;1.214;2023-01-15T03:12:42;99089.22;;;3.20;78.11
66381;BME280;53177;52.648;1.214;2023-01-15T03:15:51;99080.63;;;3.14;78.13
66381;BME280;53177;52.648;1.214;2023-01-15T03:18:47;99064.16;;;3.10;78.25
66381;BME280;53177;52.648;1.214;2023-01-15T03:21:20;99072.03;;;3.09;78.74
66381;BME280;53177;52.648;1.214;2023-01-15T03:23:50;99058.09;;;3.10;78.52
66381;BME280;53177;52.648;1.214;2023-01-15T03:26:17;99057.16;;;3.11;78.35
66381;BME280;53177;52.648;1.214;2023-01-15T03:28:43;99040.75;;;3.06;78.47
66381;BME280;53177;52.648;1.214;2023-01-15T03:31:09;99065.06;;;3.08;78.10
66381;BME280;53177;52.648;1.214;2023-01-15T03:33:35;99048.53;;;3.07;77.88
66381;BME280;53177;52.648;1.214;2023-01-15T03:36:01;99044.25;;;3.03;78.73
66381;BME280;53177;52.648;1.214;2023-01-15T03:38:29;99051.22;;;3.04;78.36
66381;BME280;53177;52.648;1.214;2023-01-15T03:52:19;99062.59;;;3.00;77.32
66381;BME280;53177;52.648;1.214;2023-01-15T03:57:32;99052.22;;;2.97;76.65
66381;BME280;53177;52.648;1.214;2023-01-15T04:00:07;99059.16;;;2.98;77.02
66381;BME280;53177;52.648;1.214;2023-01-15T04:02:35;99054.00;;;2.95;76.88
66381;BME280;53177;52.648;1.214;2023-01-15T04:05:02;99039.31;;;2.89;76.75
66381;BME280;53177;52.648;1.214;2023-01-15T04:07:29;99046.31;;;2.87;77.14
66381;BME280;53177;52.648;1.214;2023-01-15T04:09:55;99028.88;;;2.89;77.35
66381;BME280;53177;52.648;1.214;2023-01-15T04:12:21;99037.50;;;2.94;76.27
66381;BME280;53177;52.648;1.214;2023-01-15T04:14:46;99034.91;;;2.93;77.03
66381;BME280;53177;52.648;1.214;2023-01-15T04:17:12;99029.66;;;2.93;76.80
66381;BME280;53177;52.648;1.214;2023-01-15T04:19:37;99034.06;;;2.91;76.26
66381;BME280;53177;52.648;1.214;2023-01-15T04:22:03;99031.63;;;2.82;76.63
66381;BME280;53177;52.648;1.214;2023-01-15T04:24:28;99019.44;;;2.81;77.26
66381;BME280;53177;52.648;1.214;2023-01-15T04:26:54;99018.50;;;2.85;76.58
66381;BME280;53177;52.648;1.214;2023-01-15T04:29:19;99015.91;;;2.85;77.33
66381;BME280;53177;52.648;1.214;2023-01-15T04:31:45;99033.34;;;2.84;77.28
66381;BME280;53177;52.648;1.214;2023-01-15T04:34:10;99026.31;;;2.86;76.71
66381;BME280;53177;52.648;1.214;2023-01-15T04:36:36;99030.72;;;2.84;77.18
66381;BME280;53177;52.648;1.214;2023-01-15T04:39:03;99022.91;;;2.83;77.17
66381;BME280;53177;52.648;1.214;2023-01-15T04:41:29;99013.41;;;2.80;77.77
66381;BME280;53177;52.648;1.214;2023-01-15T04:44:13;99012.47;;;2.83;77.03
66381;BME280;53177;52.648;1.214;2023-01-15T04:46:41;99006.38;;;2.82;77.33
66381;BME280;53177;52.648;1.214;2023-01-15T04:49:15;99009.84;;;2.84;77.61
66381;BME280;53177;52.648;1.214;2023-01-15T04:51:42;99009.88;;;2.81;77.43
66381;BME280;53177;52.648;1.214;2023-01-15T04:54:09;99006.41;;;2.81;77.62
66381;BME280;53177;52.648;1.214;2023-01-15T04:56:45;99015.09;;;2.83;76.89
66381;BME280;53177;52.648;1.214;2023-01-15T04:59:12;99024.69;;;2.81;78.32
66381;BME280;53177;52.648;1.214;2023-01-15T05:01:37;99035.16;;;2.79;77.67
66381;BME280;53177;52.648;1.214;2023-01-15T05:04:03;99026.59;;;2.71;78.64
66381;BME280;53177;52.648;1.214;2023-01-15T05:06:29;99009.06;;;2.78;77.58
66381;BME280;53177;52.648;1.214;2023-01-15T05:08:56;99021.22;;;2.80;77.73
66381;BME280;53177;52.648;1.214;2023-01-15T05:11:22;99016.91;;;2.79;77.56
66381;BME280;53177;52.648;1.214;2023-01-15T05:13:47;99033.47;;;2.77;78.03
66381;BME280;53177;52.648;1.214;2023-01-15T05:16:18;99025.59;;;2.78;78.32
66381;BME280;53177;52.648;1.214;2023-01-15T05:18:45;99013.47;;;2.76;78.10
66381;BME280;53177;52.648;1.214;2023-01-15T05:21:22;99016.97;;;2.76;77.94
66381;BME280;53177;52.648;1.214;2023-01-15T05:23:49;99012.59;;;2.77;78.29
66381;BME280;53177;52.648;1.214;2023-01-15T05:26:16;99025.59;;;2.78;78.22
66381;BME280;53177;52.648;1.214;2023-01-15T05:28:41;99017.81;;;2.77;78.75
66381;BME280;53177;52.648;1.214;2023-01-15T05:31:12;99014.22;;;2.82;78.55
66381;BME280;53177;52.648;1.214;2023-01-15T05:33:38;99020.22;;;2.87;78.36
66381;BME280;53177;52.648;1.214;2023-01-15T05:36:07;99003.72;;;2.85;78.71
66381;BME280;53177;52.648;1.214;2023-01-15T05:38:34;99019.44;;;2.84;79.16
66381;BME280;53177;52.648;1.214;2023-01-15T05:41:03;98996.00;;;2.79;80.09
66381;BME280;53177;52.648;1.214;2023-01-15T05:43:48;99005.59;;;2.77;80.74
66381;BME280;53177;52.648;1.214;2023-01-15T05:46:14;98999.56;;;2.77;80.86
66381;BME280;53177;52.648;1.214;2023-01-15T05:48:39;98999.50;;;2.80;81.19
66381;BME280;53177;52.648;1.214;2023-01-15T05:51:05;98992.53;;;2.80;80.88
66381;BME280;53177;52.648;1.214;2023-01-15T05:53:30;99006.38;;;2.82;81.12
66381;BME280;53177;52.648;1.214;2023-01-15T05:56:02;99007.16;;;2.87;80.96
66381;BME280;53177;52.648;1.214;2023-01-15T05:58:27;98995.88;;;2.85;81.21
66381;BME280;53177;52.648;1.214;2023-01-15T06:00:53;98998.41;;;2.90;81.21
66381;BME280;53177;52.648;1.214;2023-01-15T06:03:21;99002.75;;;2.89;81.27
66381;BME280;53177;52.648;1.214;2023-01-15T06:05:50;99002.75;;;2.89;81.29
66381;BME280;53177;52.648;1.214;2023-01-15T06:08:15;98995.81;;;2.88;81.33
66381;BME280;53177;52.648;1.214;2023-01-15T06:10:43;98992.41;;;2.85;81.32
66381;BME280;53177;52.648;1.214;2023-01-15T06:13:09;98985.44;;;2.85;81.66
66381;BME280;53177;52.648;1.214;2023-01-15T06:15:34;98995.81;;;2.88;81.64
66381;BME280;53177;52.648;1.214;2023-01-15T06:18:00;98983.63;;;2.89;81.51
66381;BME280;53177;52.648;1.214;2023-01-15T06:20:26;98974.06;;;2.89;82.46
66381;BME280;53177;52.648;1.214;2023-01-15T06:22:51;98988.06;;;2.85;82.47
66381;BME280;53177;52.648;1.214;2023-01-15T06:25:17;98977.66;;;2.84;82.70
66381;BME280;53177;52.648;1.214;2023-01-15T06:27:42;98975.94;;;2.83;82.46
66381;BME280;53177;52.648;1.214;2023-01-15T06:30:10;98980.28;;;2.82;82.80
66381;BME280;53177;52.648;1.214;2023-01-15T06:32:36;98978.47;;;2.86;82.64
66381;BME280;53177;52.648;1.214;2023-01-15T06:35:02;98962.88;;;2.84;82.82
66381;BME280;53177;52.648;1.214;2023-01-15T06:37:28;98969.75;;;2.87;82.52
66381;BME280;53177;52.648;1.214;2023-01-15T06:39:53;98980.16;;;2.88;82.68
66381;BME280;53177;52.648;1.214;2023-01-15T06:42:18;98988.78;;;2.93;82.96
66381;BME280;53177;52.648;1.214;2023-01-15T06:45:03;98983.41;;;3.00;82.52
66381;BME280;53177;52.648;1.214;2023-01-15T06:47:47;98972.94;;;3.01;82.53
66381;BME280;53177;52.648;1.214;2023-01-15T06:50:14;98974.63;;;3.04;82.73
66381;BME280;53177;52.648;1.214;2023-01-15T06:52:39;98971.94;;;3.08;82.63
66381;BME280;53177;52.648;1.214;2023-01-15T06:55:05;98988.47;;;3.07;82.83
66381;BME280;53177;52.648;1.214;2023-01-15T06:57:31;98965.81;;;3.09;82.51
66381;BME280;53177;52.648;1.214;2023-01-15T06:59:56;98974.47;;;3.11;82.90
66381;BME280;53177;52.648;1.214;2023-01-15T07:02:22;98978.00;;;3.09;83.04
66381;BME280;53177;52.648;1.214;2023-01-15T07:04:47;98974.53;;;3.08;83.36
66381;BME280;53177;52.648;1.214;2023-01-15T07:07:17;98982.34;;;3.10;83.04
66381;BME280;53177;52.648;1.214;2023-01-15T07:09:43;98967.31;;;3.21;83.31
66381;BME280;53177;52.648;1.214;2023-01-15T07:12:08;98973.34;;;3.23;83.21
66381;BME280;53177;52.648;1.214;2023-01-15T07:14:34;98976.75;;;3.28;82.76
66381;BME280;53177;52.648;1.214;2023-01-15T07:17:01;98977.56;;;3.30;83.05
66381;BME280;53177;52.648;1.214;2023-01-15T07:19:26;98962.75;;;3.30;83.23
66381;BME280;53177;52.648;1.214;2023-01-15T07:21:52;98967.81;;;3.36;83.07
66381;BME280;53177;52.648;1.214;2023-01-15T07:24:18;98969.47;;;3.42;83.28
66381;BME280;53177;52.648;1.214;2023-01-15T07:26:43;98974.63;;;3.45;83.31
66381;BME280;53177;52.648;1.214;2023-01-15T07:29:12;98982.38;;;3.48;83.09
66381;BME280;53177;52.648;1.214;2023-01-15T07:31:41;98976.28;;;3.48;83.39
66381;BME280;53177;52.648;1.214;2023-01-15T07:34:14;98977.94;;;3.52;82.99
66381;BME280;53177;52.648;1.214;2023-01-15T07:36:48;98973.47;;;3.57;82.68
66381;BME280;53177;52.648;1.214;2023-01-15T07:39:20;98978.63;;;3.60;82.68
66381;BME280;53177;52.648;1.214;2023-01-15T07:41:48;98974.28;;;3.59;82.33
66381;BME280;53177;52.648;1.214;2023-01-15T07:44:33;98965.63;;;3.58;82.66
66381;BME280;53177;52.648;1.214;2023-01-15T07:47:23;98954.94;;;3.67;81.85
66381;BME280;53177;52.648;1.214;2023-01-15T07:50:20;98937.69;;;3.60;82.21
66381;BME280;53177;52.648;1.214;2023-01-15T07:52:50;98955.97;;;3.60;82.21
66381;BME280;53177;52.648;1.214;2023-01-15T07:55:18;98954.13;;;3.65;82.05
66381;BME280;53177;52.648;1.214;2023-01-15T07:57:47;98959.31;;;3.67;81.78
66381;BME280;53177;52.648;1.214;2023-01-15T08:00:19;98950.59;;;3.66;82.30
66381;BME280;53177;52.648;1.214;2023-01-15T08:02:45;98954.13;;;3.65;82.02
66381;BME280;53177;52.648;1.214;2023-01-15T08:05:14;98947.19;;;3.64;81.99
66381;BME280;53177;52.648;1.214;2023-01-15T08:07:40;98950.59;;;3.66;82.16
66381;BME280;53177;52.648;1.214;2023-01-15T08:10:08;98952.31;;;3.69;81.97
66381;BME280;53177;52.648;1.214;2023-01-15T08:12:34;98947.06;;;3.69;82.10
66381;BME280;53177;52.648;1.214;2023-01-15T08:15:18;98955.00;;;3.66;82.48
66381;BME280;53177;52.648;1.214;2023-01-15T08:17:45;98958.41;;;3.69;82.55
66381;BME280;53177;52.648;1.214;2023-01-15T08:20:24;98953.09;;;3.72;82.40
66381;BME280;53177;52.648;1.214;2023-01-15T08:22:50;98948.66;;;3.74;82.57
66381;BME280;53177;52.648;1.214;2023-01-15T08:25:19;98949.50;;;3.76;82.19
66381;BME280;53177;52.648;1.214;2023-01-15T08:27:45;98951.28;;;3.74;82.42
66381;BME280;53177;52.648;1.214;2023-01-15T08:30:18;98972.19;;;3.76;82.19
66381;BME280;53177;52.648;1.214;2023-01-15T08:32:45;98962.59;;;3.75;82.45
66381;BME280;53177;52.648;1.214;2023-01-15T08:35:11;98962.59;;;3.76;82.20
66381;BME280;53177;52.648;1.214;2023-01-15T08:37:38;98964.41;;;3.73;82.68
66381;BME280;53177;52.648;1.214;2023-01-15T08:40:04;98961.81;;;3.71;83.04
66381;BME280;53177;52.648;1.214;2023-01-15T08:42:29;98959.13;;;3.74;82.51
66381;BME280;53177;52.648;1.214;2023-01-15T08:44:55;98965.19;;;3.76;82.39
66381;BME280;53177;52.648;1.214;2023-01-15T08:47:20;98955.44;;;3.83;81.99
66381;BME280;53177;52.648;1.214;2023-01-15T08:49:46;98966.88;;;3.77;82.67
66381;BME280;53177;52.648;1.214;2023-01-15T08:52:14;98964.97;;;3.85;82.09
66381;BME280;53177;52.648;1.214;2023-01-15T08:54:39;98980.69;;;3.84;81.94
66381;BME280;53177;52.648;1.214;2023-01-15T08:57:05;98979.75;;;3.88;82.04
66381;BME280;53177;52.648;1.214;2023-01-15T08:59:30;98981.34;;;3.93;81.67
66381;BME280;53177;52.648;1.214;2023-01-15T09:01:56;98978.75;;;3.92;82.17
66381;BME280;53177;52.648;1.214;2023-01-15T09:04:21;98964.84;;;3.90;82.22
66381;BME280;53177;52.648;1.214;2023-01-15T09:06:47;98975.22;;;3.95;81.80
66381;BME280;53177;52.648;1.214;2023-01-15T09:09:13;98966.41;;;3.99;81.65
66381;BME280;53177;52.648;1.214;2023-01-15T09:11:40;98949.75;;;4.01;82.08
66381;BME280;53177;52.648;1.214;2023-01-15T09:14:07;98951.41;;;4.05;81.58
66381;BME280;53177;52.648;1.214;2023-01-15T09:16:34;98972.34;;;4.05;81.59
66381;BME280;53177;52.648;1.214;2023-01-15T09:19:00;98968.00;;;4.04;81.87
66381;BME280;53177;52.648;1.214;2023-01-15T09:21:25;98959.06;;;4.13;81.49
66381;BME280;53177;52.648;1.214;2023-01-15T09:23:51;98967.63;;;4.18;81.42
66381;BME280;53177;52.648;1.214;2023-01-15T09:28:49;98980.34;;;4.33;80.75
66381;BME280;53177;52.648;1.214;2023-01-15T09:31:15;98977.66;;;4.36;81.00
66381;BME280;53177;52.648;1.214;2023-01-15T09:33:40;98991.38;;;4.46;81.50
66381;BME280;53177;52.648;1.214;2023-01-15T09:36:15;98991.81;;;4.61;80.54
66381;BME280;53177;52.648;1.214;2023-01-15T09:38:41;98994.25;;;4.69;80.45
66381;BME280;53177;52.648;1.214;2023-01-15T09:41:12;99001.75;;;4.81;80.13
66381;BME280;53177;52.648;1.214;2023-01-15T09:46:40;98995.78;;;5.07;79.04
66381;BME280;53177;52.648;1.214;2023-01-15T09:49:32;98999.75;;;4.90;79.53
66381;BME280;53177;52.648;1.214;2023-01-15T09:57:41;99023.28;;;4.58;82.42
66381;BME280;53177;52.648;1.214;2023-01-15T10:00:22;99025.19;;;4.53;83.13
66381;BME280;53177;52.648;1.214;2023-01-15T10:03:04;99024.34;;;4.51;82.39
66381;BME280;53177;52.648;1.214;2023-01-15T10:05:35;99039.25;;;4.49;83.37
66381;BME280;53177;52.648;1.214;2023-01-15T10:08:20;99040.13;;;4.48;82.20
66381;BME280;53177;52.648;1.214;2023-01-15T10:10:56;99049.81;;;4.46;83.49
66381;BME280;53177;52.648;1.214;2023-01-15T10:16:08;99035.84;;;4.46;83.01
66381;BME280;53177;52.648;1.214;2023-01-15T10:18:34;99038.38;;;4.49;83.78
66381;BME280;53177;52.648;1.214;2023-01-15T10:26:34;99070.63;;;4.51;83.29
66381;BME280;53177;52.648;1.214;2023-01-15T10:29:04;99070.56;;;4.52;84.08
66381;BME280;53177;52.648;1.214;2023-01-15T10:31:49;99075.63;;;4.60;84.41
66381;BME280;53177;52.648;1.214;2023-01-15T10:34:32;99086.16;;;4.57;84.39
66381;BME280;53177;52.648;1.214;2023-01-15T10:37:13;99087.13;;;4.54;84.16
66381;BME280;53177;52.648;1.214;2023-01-15T10:42:55;99089.06;;;4.45;85.11
66381;BME280;53177;52.648;1.214;2023-01-15T10:45:30;99088.28;;;4.43;84.38
66381;BME280;53177;52.648;1.214;2023-01-15T10:48:08;99095.19;;;4.43;85.14
66381;BME280;53177;52.648;1.214;2023-01-15T10:50:36;99104.00;;;4.41;84.59
66381;BME280;53177;52.648;1.214;2023-01-15T10:53:39;99097.00;;;4.41;84.83
66381;BME280;53177;52.648;1.214;2023-01-15T10:56:15;99109.13;;;4.46;84.35
66381;BME280;53177;52.648;1.214;2023-01-15T10:58:57;99100.41;;;4.45;84.44
66381;BME280;53177;52.648;1.214;2023-01-15T11:01:26;99104.75;;;4.46;84.54
66381;BME280;53177;52.648;1.214;2023-01-15T11:03:52;99116.97;;;4.47;84.62
66381;BME280;53177;52.648;1.214;2023-01-15T11:06:21;99119.50;;;4.50;84.73
66381;BME280;53177;52.648;1.214;2023-01-15T11:08:53;99122.03;;;4.53;84.02
66381;BME280;53177;52.648;1.214;2023-01-15T11:11:35;99127.28;;;4.52;83.46
66381;BME280;53177;52.648;1.214;2023-01-15T11:14:51;99123.78;;;4.53;84.14
66381;BME280;53177;52.648;1.214;2023-01-15T11:20:36;99148.03;;;4.61;84.29
66381;BME280;53177;52.648;1.214;2023-01-15T11:23:07;99138.34;;;4.64;84.07
66381;BME280;53177;52.648;1.214;2023-01-15T11:25:34;99145.31;;;4.65;84.06
66381;BME280;53177;52.648;1.214;2023-01-15T11:28:03;99152.97;;;4.73;83.92
66381;BME280;53177;52.648;1.214;2023-01-15T11:30:33;99158.06;;;4.77;84.71
66381;BME280;53177;52.648;1.214;2023-01-15T11:33:00;99155.34;;;4.82;83.53
66381;BME280;53177;52.648;1.214;2023-01-15T11:35:30;99146.59;;;4.83;83.97
66381;BME280;53177;52.648;1.214;2023-01-15T11:38:04;99163.19;;;4.83;83.06
66381;BME280;53177;52.648;1.214;2023-01-15T11:40:30;99162.16;;;4.89;83.75
66381;BME280;53177;52.648;1.214;2023-01-15T11:42:56;99160.50;;;4.85;83.29
66381;BME280;53177;52.648;1.214;2023-01-15T11:45:50;99162.16;;;4.89;83.86
66381;BME280;53177;52.648;1.214;2023-01-15T11:48:46;99156.06;;;4.88;84.30
66381;BME280;53177;52.648;1.214;2023-01-15T11:51:33;99168.34;;;4.86;84.45
66381;BME280;53177;52.648;1.214;2023-01-15T11:54:07;99173.56;;;4.86;84.41
66381;BME280;53177;52.648;1.214;2023-01-15T11:56:34;99169.34;;;4.81;85.03
66381;BME280;53177;52.648;1.214;2023-01-15T11:59:03;99180.66;;;4.83;85.49
66381;BME280;53177;52.648;1.214;2023-01-15T12:01:37;99171.22;;;4.76;85.63
66381;BME280;53177;52.648;1.214;2023-01-15T12:04:35;99176.41;;;4.77;86.12
66381;BME280;53177;52.648;1.214;2023-01-15T12:07:04;99189.56;;;4.76;86.62
66381;BME280;53177;52.648;1.214;2023-01-15T12:12:24;99182.69;;;4.70;86.29
66381;BME280;53177;52.648;1.214;2023-01-15T12:27:04;99179.97;;;4.75;86.78
66381;BME280;53177;52.648;1.214;2023-01-15T12:29:17;99172.00;;;4.79;86.82
66381;BME280;53177;52.648;1.214;2023-01-15T12:32:02;99184.16;;;4.82;86.72
66381;BME280;53177;52.648;1.214;2023-01-15T12:37:08;99185.81;;;4.84;86.20
66381;BME280;53177;52.648;1.214;2023-01-15T12:39:45;99190.25;;;4.82;86.08
66381;BME280;53177;52.648;1.214;2023-01-15T12:42:15;99184.91;;;4.87;86.11
66381;BME280;53177;52.648;1.214;2023-01-15T12:45:06;99179.53;;;4.91;86.33
66381;BME280;53177;52.648;1.214;2023-01-15T12:50:35;99179.44;;;4.96;85.44
66381;BME280;53177;52.648;1.214;2023-01-15T12:56:35;99184.56;;;5.01;84.48
66381;BME280;53177;52.648;1.214;2023-01-15T13:04:52;99187.88;;;5.07;83.38
66381;BME280;53177;52.648;1.214;2023-01-15T13:08:04;99191.28;;;5.11;83.23
66381;BME280;53177;52.648;1.214;2023-01-15T13:10:28;99189.44;;;5.16;82.86
66381;BME280;53177;52.648;1.214;2023-01-15T13:13:22;99191.16;;;5.17;82.10
66381;BME280;53177;52.648;1.214;2023-01-15T13:19:12;99199.72;;;5.23;81.93
66381;BME280;53177;52.648;1.214;2023-01-15T13:21:41;99199.63;;;5.26;81.11
66381;BME280;53177;52.648;1.214;2023-01-15T13:29:43;99213.44;;;5.33;80.15
66381;BME280;53177;52.648;1.214;2023-01-15T13:39:50;99215.91;;;5.39;80.56
66381;BME280;53177;52.648;1.214;2023-01-15T13:42:23;99222.91;;;5.38;80.86
66381;BME280;53177;52.648;1.214;2023-01-15T13:47:49;99218.47;;;5.40;80.77
66381;BME280;53177;52.648;1.214;2023-01-15T13:50:30;99230.66;;;5.43;80.77
66381;BME280;53177;52.648;1.214;2023-01-15T13:53:06;99223.56;;;5.47;80.69
66381;BME280;53177;52.648;1.214;2023-01-15T13:55:40;99238.38;;;5.48;79.83
66381;BME280;53177;52.648;1.214;2023-01-15T13:58:21;99225.34;;;5.46;81.05
66381;BME280;53177;52.648;1.214;2023-01-15T14:00:48;99227.03;;;5.47;80.16
66381;BME280;53177;52.648;1.214;2023-01-15T14:03:32;99233.91;;;5.53;79.88
66381;BME280;53177;52.648;1.214;2023-01-15T14:06:01;99234.69;;;5.55;79.05
66381;BME280;53177;52.648;1.214;2023-01-15T14:08:35;99227.69;;;5.55;79.66
66381;BME280;53177;52.648;1.214;2023-01-15T14:11:01;99224.22;;;5.55;79.83
66381;BME280;53177;52.648;1.214;2023-01-15T14:16:21;99234.66;;;5.56;79.21
66381;BME280;53177;52.648;1.214;2023-01-15T14:19:02;99233.72;;;5.59;79.76
66381;BME280;53177;52.648;1.214;2023-01-15T14:21:53;99239.81;;;5.61;78.98
66381;BME280;53177;52.648;1.214;2023-01-15T14:24:45;99237.19;;;5.61;80.08
66381;BME280;53177;52.648;1.214;2023-01-15T14:30:28;99239.81;;;5.61;79.67
66381;BME280;53177;52.648;1.214;2023-01-15T14:35:44;99237.22;;;5.59;79.82
66381;BME280;53177;52.648;1.214;2023-01-15T14:38:16;99240.69;;;5.60;79.74
66381;BME280;53177;52.648;1.214;2023-01-15T14:41:01;99236.31;;;5.60;80.31
66381;BME280;53177;52.648;1.214;2023-01-15T14:43:29;99232.03;;;5.58;79.42
66381;BME280;53177;52.648;1.214;2023-01-15T14:46:11;99235.53;;;5.57;79.38
66381;BME280;53177;52.648;1.214;2023-01-15T14:48:37;99229.50;;;5.53;80.26
66381;BME280;53177;52.648;1.214;2023-01-15T14:54:10;99232.84;;;5.58;80.30
66381;BME280;53177;52.648;1.214;2023-01-15T14:56:43;99237.31;;;5.55;80.07
66381;BME280;53177;52.648;1.214;2023-01-15T14:59:23;99247.81;;;5.55;80.24
66381;BME280;53177;52.648;1.214;2023-01-15T15:01:54;99238.38;;;5.48;80.40
66381;BME280;53177;52.648;1.214;2023-01-15T15:04:47;99253.19;;;5.50;79.25
66381;BME280;53177;52.648;1.214;2023-01-15T15:07:21;99245.44;;;5.46;79.69
66381;BME280;53177;52.648;1.214;2023-01-15T15:10:05;99250.72;;;5.44;79.59
66381;BME280;53177;52.648;1.214;2023-01-15T15:20:29;99235.19;;;5.36;80.01
66381;BME280;53177;52.648;1.214;2023-01-15T15:23:07;99235.91;;;5.43;80.05
66381;BME280;53177;52.648;1.214;2023-01-15T15:25:35;99233.41;;;5.38;78.84